sensor_id;sensor_type;location;lat;lon;timestamp;pressure;altitude;pressure_sealevel;temperature;humidity
78839;BME280;68189;47.190;27.558;2023-03-04T00:00:26;99896.97;;;21.16;42.73
78839;BME280;68189;47.190;27.558;2023-03-04T00:02:56;99895.48;;;21.15;42.73
78839;BME280;68189;47.190;27.558;2023-03-04T00:05:27;99892.90;;;21.14;42.72
78839;BME280;68189;47.190;27.558;2023-03-04T00:07:58;99891.70;;;21.13;42.73
78839;BME280;68189;47.190;27.558;2023-03-04T00:10:29;99886.46;;;21.12;42.73
78839;BME280;68189;47.190;27.558;2023-03-04T00:12:59;99882.98;;;21.11;42.72
78839;BME280;68189;47.190;27.558;2023-03-04T00:15:29;99882.90;;;21.10;42.63
78839;BME280;68189;47.190;27.558;2023-03-04T00:17:59;99877.36;;;21.09;42.68
78839;BME280;68189;47.190;27.558;2023-03-04T00:20:30;99879.36;;;21.08;42.72
78839;BME280;68189;47.190;27.558;2023-03-04T00:23:00;99876.23;;;21.07;42.78
78839;BME280;68189;47.190;27.558;2023-03-04T00:25:30;99879.27;;;21.07;42.69
78839;BME280;68189;47.190;27.558;2023-03-04T00:28:01;99872.00;;;21.05;42.68
78839;BME280;68189;47.190;27.558;2023-03-04T00:30:31;99867.85;;;21.04;42.77
78839;BME280;68189;47.190;27.558;2023-03-04T00:33:02;99860.36;;;21.03;42.79
78839;BME280;68189;47.190;27.558;2023-03-04T00:35:32;99859.21;;;21.02;42.74
78839;BME280;68189;47.190;27.558;2023-03-04T00:38:03;99861.93;;;21.01;42.78
78839;BME280;68189;47.190;27.558;2023-03-04T00:40:33;99857.65;;;20.99;42.78
78839;BME280;68189;47.190;27.558;2023-03-04T00:43:03;99855.60;;;20.98;42.73
78839;BME280;68189;47.190;27.558;2023-03-04T00:45:34;99850.64;;;20.96;42.74
78839;BME280;68189;47.190;27.558;2023-03-04T00:48:04;99850.13;;;20.95;42.81
78839;BME280;68189;47.190;27.558;2023-03-04T00:50:35;99847.73;;;20.95;42.76
78839;BME280;68189;47.190;27.558;2023-03-04T00:53:05;99844.27;;;20.94;42.74
78839;BME280;68189;47.190;27.558;2023-03-04T00:55:35;99842.71;;;20.93;42.80
78839;BME280;68189;47.190;27.558;2023-03-04T00:58:06;99834.52;;;20.92;42.78
78839;BME280;68189;47.190;27.558;2023-03-04T01:00:36;99832.31;;;20.91;42.73
78839;BME280;68189;47.190;27.558;2023-03-04T01:03:06;99830.09;;;20.90;42.75
78839;BME280;68189;47.190;27.558;2023-03-04T01:05:37;99830.67;;;20.89;42.80
78839;BME280;68189;47.190;27.558;2023-03-04T01:08:07;99825.41;;;20.89;42.80
78839;BME280;68189;47.190;27.558;2023-03-04T01:10:37;99823.92;;;20.88;42.82
78839;BME280;68189;47.190;27.558;2023-03-04T01:13:08;99823.23;;;20.87;42.77
78839;BME280;68189;47.190;27.558;2023-03-04T01:15:38;99818.59;;;20.86;42.79
78839;BME280;68189;47.190;27.558;2023-03-04T01:18:08;99819.67;;;20.86;42.77
78839;BME280;68189;47.190;27.558;2023-03-04T01:20:39;99821.73;;;20.84;42.86
78839;BME280;68189;47.190;27.558;2023-03-04T01:23:09;99822.26;;;20.84;42.74
78839;BME280;68189;47.190;27.558;2023-03-04T01:25:39;99817.02;;;20.83;42.79
78839;BME280;68189;47.190;27.558;2023-03-04T01:28:09;99812.17;;;20.82;42.83
78839;BME280;68189;47.190;27.558;2023-03-04T01:30:40;99811.14;;;20.82;42.86
78839;BME280;68189;47.190;27.558;2023-03-04T01:33:10;99810.98;;;20.82;42.76
78839;BME280;68189;47.190;27.558;2023-03-04T01:35:40;99803.79;;;20.81;42.76
78839;BME280;68189;47.190;27.558;2023-03-04T01:38:11;99799.27;;;20.80;42.81
78839;BME280;68189;47.190;27.558;2023-03-04T01:40:42;99798.30;;;20.79;42.85
78839;BME280;68189;47.190;27.558;2023-03-04T01:43:17;99794.65;;;20.78;42.83
78839;BME280;68189;47.190;27.558;2023-03-04T01:45:50;99791.13;;;20.78;42.81
78839;BME280;68189;47.190;27.558;2023-03-04T01:48:23;99792.13;;;20.76;42.72
78839;BME280;68189;47.190;27.558;2023-03-04T01:50:54;99784.62;;;20.76;42.77
78839;BME280;68189;47.190;27.558;2023-03-04T01:53:26;99783.40;;;20.75;42.80
78839;BME280;68189;47.190;27.558;2023-03-04T01:55:59;99782.59;;;20.74;42.78
78839;BME280;68189;47.190;27.558;2023-03-04T01:58:31;99778.75;;;20.74;42.77
78839;BME280;68189;47.190;27.558;2023-03-04T02:01:02;99780.38;;;20.73;42.80
78839;BME280;68189;47.190;27.558;2023-03-04T02:03:32;99777.36;;;20.74;42.81
78839;BME280;68189;47.190;27.558;2023-03-04T02:06:02;99774.96;;;20.73;42.81
78839;BME280;68189;47.190;27.558;2023-03-04T02:08:33;99774.63;;;20.73;42.80
78839;BME280;68189;47.190;27.558;2023-03-04T02:11:03;99771.02;;;20.73;42.84
78839;BME280;68189;47.190;27.558;2023-03-04T02:13:34;99761.36;;;20.73;42.85
78839;BME280;68189;47.190;27.558;2023-03-04T02:16:06;99758.05;;;20.72;42.85
78839;BME280;68189;47.190;27.558;2023-03-04T02:18:36;99751.34;;;20.73;42.80
78839;BME280;68189;47.190;27.558;2023-03-04T02:21:14;99754.86;;;20.72;42.87
78839;BME280;68189;47.190;27.558;2023-03-04T02:23:52;99752.46;;;20.72;42.81
78839;BME280;68189;47.190;27.558;2023-03-04T02:26:27;99749.49;;;20.71;42.77
78839;BME280;68189;47.190;27.558;2023-03-04T02:29:00;99749.33;;;20.71;42.76
78839;BME280;68189;47.190;27.558;2023-03-04T02:31:34;99751.11;;;20.71;42.77
78839;BME280;68189;47.190;27.558;2023-03-04T02:34:09;99750.44;;;20.70;42.79
78839;BME280;68189;47.190;27.558;2023-03-04T02:36:41;99750.77;;;20.70;42.75
78839;BME280;68189;47.190;27.558;2023-03-04T02:39:20;99747.05;;;20.71;42.75
78839;BME280;68189;47.190;27.558;2023-03-04T02:41:53;99743.16;;;20.71;42.82
78839;BME280;68189;47.190;27.558;2023-03-04T02:44:25;99738.46;;;20.70;42.69
78839;BME280;68189;47.190;27.558;2023-03-04T02:46:56;99735.77;;;20.70;42.77
78839;BME280;68189;47.190;27.558;2023-03-04T02:49:29;99732.04;;;20.71;42.75
78839;BME280;68189;47.190;27.558;2023-03-04T02:52:04;99722.35;;;20.71;42.80
78839;BME280;68189;47.190;27.558;2023-03-04T02:54:35;99716.40;;;20.70;42.69
78839;BME280;68189;47.190;27.558;2023-03-04T02:57:08;99715.13;;;20.70;42.68
78839;BME280;68189;47.190;27.558;2023-03-04T02:59:40;99710.66;;;20.71;42.74
78839;BME280;68189;47.190;27.558;2023-03-04T03:02:11;99704.20;;;20.70;42.77
78839;BME280;68189;47.190;27.558;2023-03-04T03:04:41;99702.23;;;20.70;42.72
78839;BME280;68189;47.190;27.558;2023-03-04T03:07:12;99697.02;;;20.69;42.68
78839;BME280;68189;47.190;27.558;2023-03-04T03:09:42;99697.90;;;20.69;42.68
78839;BME280;68189;47.190;27.558;2023-03-04T03:12:12;99694.06;;;20.69;42.61
78839;BME280;68189;47.190;27.558;2023-03-04T03:14:43;99689.15;;;20.69;42.65
78839;BME280;68189;47.190;27.558;2023-03-04T03:17:13;99684.55;;;20.68;42.69
78839;BME280;68189;47.190;27.558;2023-03-04T03:19:43;99685.26;;;20.68;42.66
78839;BME280;68189;47.190;27.558;2023-03-04T03:22:14;99678.17;;;20.69;42.64
78839;BME280;68189;47.190;27.558;2023-03-04T03:24:44;99680.04;;;20.68;42.63
78839;BME280;68189;47.190;27.558;2023-03-04T03:27:14;99676.36;;;20.67;42.71
78839;BME280;68189;47.190;27.558;2023-03-04T03:29:44;99671.59;;;20.68;42.62
78839;BME280;68189;47.190;27.558;2023-03-04T03:32:15;99666.05;;;20.66;42.65
78839;BME280;68189;47.190;27.558;2023-03-04T03:34:45;99662.98;;;20.64;42.60
78839;BME280;68189;47.190;27.558;2023-03-04T03:37:15;99656.28;;;20.64;42.66
78839;BME280;68189;47.190;27.558;2023-03-04T03:39:46;99655.40;;;20.64;42.60
78839;BME280;68189;47.190;27.558;2023-03-04T03:42:16;99655.96;;;20.64;42.69
78839;BME280;68189;47.190;27.558;2023-03-04T03:44:46;99655.59;;;20.64;42.74
78839;BME280;68189;47.190;27.558;2023-03-04T03:47:17;99654.88;;;20.64;42.73
78839;BME280;68189;47.190;27.558;2023-03-04T03:49:48;99656.55;;;20.66;42.65
78839;BME280;68189;47.190;27.558;2023-03-04T03:52:18;99655.69;;;20.65;42.70
78839;BME280;68189;47.190;27.558;2023-03-04T03:54:48;99662.42;;;20.65;42.76
78839;BME280;68189;47.190;27.558;2023-03-04T03:57:19;99662.20;;;20.65;42.73
78839;BME280;68189;47.190;27.558;2023-03-04T03:59:49;99660.66;;;20.65;42.64
78839;BME280;68189;47.190;27.558;2023-03-04T04:02:19;99658.36;;;20.65;42.71
78839;BME280;68189;47.190;27.558;2023-03-04T04:04:50;99654.94;;;20.66;42.66
78839;BME280;68189;47.190;27.558;2023-03-04T04:07:20;99654.48;;;20.67;42.57
78839;BME280;68189;47.190;27.558;2023-03-04T04:09:51;99651.79;;;20.68;42.64
78839;BME280;68189;47.190;27.558;2023-03-04T04:12:21;99653.54;;;20.68;42.64
78839;BME280;68189;47.190;27.558;2023-03-04T04:14:51;99649.30;;;20.68;42.55
78839;BME280;68189;47.190;27.558;2023-03-04T04:17:21;99648.47;;;20.67;42.63
78839;BME280;68189;47.190;27.558;2023-03-04T04:19:52;99649.77;;;20.67;42.61
78839;BME280;68189;47.190;27.558;2023-03-04T04:22:22;99648.05;;;20.68;42.50
78839;BME280;68189;47.190;27.558;2023-03-04T04:24:52;99648.17;;;20.69;42.57
78839;BME280;68189;47.190;27.558;2023-03-04T04:27:23;99642.52;;;20.69;42.54
78839;BME280;68189;47.190;27.558;2023-03-04T04:29:53;99640.08;;;20.68;42.57
78839;BME280;68189;47.190;27.558;2023-03-04T04:32:23;99638.58;;;20.68;42.53
78839;BME280;68189;47.190;27.558;2023-03-04T04:34:53;99638.09;;;20.67;42.47
78839;BME280;68189;47.190;27.558;2023-03-04T04:37:24;99634.45;;;20.67;42.55
78839;BME280;68189;47.190;27.558;2023-03-04T04:39:54;99634.61;;;20.67;42.57
78839;BME280;68189;47.190;27.558;2023-03-04T04:42:25;99632.90;;;20.66;42.51
78839;BME280;68189;47.190;27.558;2023-03-04T04:44:57;99629.72;;;20.66;42.49
78839;BME280;68189;47.190;27.558;2023-03-04T04:47:28;99636.55;;;20.66;42.58
78839;BME280;68189;47.190;27.558;2023-03-04T04:49:58;99634.42;;;20.67;42.54
78839;BME280;68189;47.190;27.558;2023-03-04T04:52:28;99637.36;;;20.67;42.46
78839;BME280;68189;47.190;27.558;2023-03-04T04:54:58;99634.59;;;20.67;42.53
78839;BME280;68189;47.190;27.558;2023-03-04T04:57:29;99636.00;;;20.69;42.53
78839;BME280;68189;47.190;27.558;2023-03-04T04:59:59;99639.05;;;20.68;42.51
78839;BME280;68189;47.190;27.558;2023-03-04T05:02:29;99640.27;;;20.68;42.52
78839;BME280;68189;47.190;27.558;2023-03-04T05:05:05;99642.25;;;20.68;42.52
78839;BME280;68189;47.190;27.558;2023-03-04T05:07:36;99640.15;;;20.67;42.41
78839;BME280;68189;47.190;27.558;2023-03-04T05:10:07;99643.13;;;20.68;42.51
78839;BME280;68189;47.190;27.558;2023-03-04T05:12:38;99642.14;;;20.69;42.42
78839;BME280;68189;47.190;27.558;2023-03-04T05:15:10;99647.48;;;20.69;42.48
78839;BME280;68189;47.190;27.558;2023-03-04T05:17:40;99643.95;;;20.69;42.42
78839;BME280;68189;47.190;27.558;2023-03-04T05:20:14;99640.05;;;20.69;42.48
78839;BME280;68189;47.190;27.558;2023-03-04T05:22:44;99638.11;;;20.69;42.46
78839;BME280;68189;47.190;27.558;2023-03-04T05:25:14;99636.45;;;20.70;42.39
78839;BME280;68189;47.190;27.558;2023-03-04T05:27:45;99638.66;;;20.71;42.47
78839;BME280;68189;47.190;27.558;2023-03-04T05:30:15;99643.81;;;20.73;42.45
78839;BME280;68189;47.190;27.558;2023-03-04T05:32:46;99640.05;;;20.74;42.44
78839;BME280;68189;47.190;27.558;2023-03-04T05:35:16;99645.61;;;20.75;42.49
78839;BME280;68189;47.190;27.558;2023-03-04T05:37:47;99644.50;;;20.75;42.53
78839;BME280;68189;47.190;27.558;2023-03-04T05:40:18;99642.52;;;20.76;42.34
78839;BME280;68189;47.190;27.558;2023-03-04T05:42:48;99642.09;;;20.77;42.43
78839;BME280;68189;47.190;27.558;2023-03-04T05:45:19;99639.75;;;20.77;42.31
78839;BME280;68189;47.190;27.558;2023-03-04T05:47:49;99643.52;;;20.79;42.32
78839;BME280;68189;47.190;27.558;2023-03-04T05:50:20;99640.18;;;20.80;42.32
78839;BME280;68189;47.190;27.558;2023-03-04T05:52:51;99635.91;;;20.83;42.32
78839;BME280;68189;47.190;27.558;2023-03-04T05:55:22;99640.26;;;20.86;42.33
78839;BME280;68189;47.190;27.558;2023-03-04T05:57:52;99639.89;;;20.89;42.22
78839;BME280;68189;47.190;27.558;2023-03-04T06:00:23;99638.36;;;20.92;42.23
78839;BME280;68189;47.190;27.558;2023-03-04T06:02:53;99634.45;;;20.94;42.11
78839;BME280;68189;47.190;27.558;2023-03-04T06:05:23;99629.35;;;20.97;42.16
78839;BME280;68189;47.190;27.558;2023-03-04T06:07:53;99626.88;;;20.99;42.10
78839;BME280;68189;47.190;27.558;2023-03-04T06:10:24;99625.91;;;21.02;42.00
78839;BME280;68189;47.190;27.558;2023-03-04T06:12:54;99624.73;;;21.08;42.01
78839;BME280;68189;47.190;27.558;2023-03-04T06:15:24;99622.06;;;21.17;41.99
78839;BME280;68189;47.190;27.558;2023-03-04T06:17:54;99618.45;;;21.26;41.89
78839;BME280;68189;47.190;27.558;2023-03-04T06:20:25;99617.92;;;21.39;41.68
78839;BME280;68189;47.190;27.558;2023-03-04T06:22:55;99618.55;;;21.50;41.63
78839;BME280;68189;47.190;27.558;2023-03-04T06:25:26;99609.70;;;21.62;41.58
78839;BME280;68189;47.190;27.558;2023-03-04T06:27:56;99612.99;;;21.75;41.49
78839;BME280;68189;47.190;27.558;2023-03-04T06:30:26;99609.87;;;21.86;41.35
78839;BME280;68189;47.190;27.558;2023-03-04T06:32:57;99609.95;;;21.98;41.42
78839;BME280;68189;47.190;27.558;2023-03-04T06:35:27;99612.52;;;22.09;41.29
78839;BME280;68189;47.190;27.558;2023-03-04T06:37:58;99612.79;;;22.20;41.06
78839;BME280;68189;47.190;27.558;2023-03-04T06:40:28;99611.64;;;22.29;41.01
78839;BME280;68189;47.190;27.558;2023-03-04T06:42:58;99614.58;;;22.38;41.00
78839;BME280;68189;47.190;27.558;2023-03-04T06:45:29;99610.48;;;22.51;40.90
78839;BME280;68189;47.190;27.558;2023-03-04T06:47:59;99605.24;;;22.66;40.87
78839;BME280;68189;47.190;27.558;2023-03-04T06:50:30;99602.66;;;22.81;40.75
78839;BME280;68189;47.190;27.558;2023-03-04T06:53:00;99598.93;;;22.95;40.70
78839;BME280;68189;47.190;27.558;2023-03-04T06:55:30;99600.41;;;23.08;40.61
78839;BME280;68189;47.190;27.558;2023-03-04T06:58:01;99600.16;;;23.23;40.57
78839;BME280;68189;47.190;27.558;2023-03-04T07:00:31;99594.20;;;23.37;40.29
78839;BME280;68189;47.190;27.558;2023-03-04T07:03:01;99600.08;;;23.50;40.18
78839;BME280;68189;47.190;27.558;2023-03-04T07:05:32;99601.56;;;23.63;39.95
78839;BME280;68189;47.190;27.558;2023-03-04T07:08:02;99600.41;;;23.76;39.81
78839;BME280;68189;47.190;27.558;2023-03-04T07:10:35;99598.02;;;23.88;39.63
78839;BME280;68189;47.190;27.558;2023-03-04T07:13:05;99596.05;;;24.01;39.37
78839;BME280;68189;47.190;27.558;2023-03-04T07:15:36;99590.06;;;24.10;39.39
78839;BME280;68189;47.190;27.558;2023-03-04T07:18:06;99588.81;;;24.14;39.17
78839;BME280;68189;47.190;27.558;2023-03-04T07:20:37;99586.23;;;24.21;39.18
78839;BME280;68189;47.190;27.558;2023-03-04T07:23:07;99584.88;;;24.31;38.96
78839;BME280;68189;47.190;27.558;2023-03-04T07:25:37;99581.98;;;24.41;38.75
78839;BME280;68189;47.190;27.558;2023-03-04T07:28:08;99576.84;;;24.48;38.60
78839;BME280;68189;47.190;27.558;2023-03-04T07:30:38;99574.39;;;24.53;38.44
78839;BME280;68189;47.190;27.558;2023-03-04T07:33:08;99572.46;;;24.56;38.34
78839;BME280;68189;47.190;27.558;2023-03-04T07:35:39;99571.20;;;24.60;38.41
78839;BME280;68189;47.190;27.558;2023-03-04T07:38:10;99572.08;;;24.66;38.29
78839;BME280;68189;47.190;27.558;2023-03-04T07:40:40;99569.20;;;24.72;38.17
78839;BME280;68189;47.190;27.558;2023-03-04T07:43:12;99567.69;;;24.76;37.78
78839;BME280;68189;47.190;27.558;2023-03-04T07:45:42;99562.30;;;24.86;37.75
78839;BME280;68189;47.190;27.558;2023-03-04T07:48:13;99561.54;;;25.03;37.57
78839;BME280;68189;47.190;27.558;2023-03-04T07:50:43;99558.55;;;25.24;37.42
78839;BME280;68189;47.190;27.558;2023-03-04T07:53:14;99556.10;;;25.41;37.38
78839;BME280;68189;47.190;27.558;2023-03-04T07:55:48;99549.72;;;25.55;37.11
78839;BME280;68189;47.190;27.558;2023-03-04T07:58:19;99550.69;;;25.68;36.98
78839;BME280;68189;47.190;27.558;2023-03-04T08:00:49;99544.38;;;25.74;36.93
78839;BME280;68189;47.190;27.558;2023-03-04T08:03:19;99544.43;;;25.72;36.78
78839;BME280;68189;47.190;27.558;2023-03-04T08:05:50;99546.09;;;25.62;36.92
78839;BME280;68189;47.190;27.558;2023-03-04T08:08:20;99542.67;;;25.47;36.77
78839;BME280;68189;47.190;27.558;2023-03-04T08:10:51;99540.95;;;25.34;36.68
78839;BME280;68189;47.190;27.558;2023-03-04T08:13:21;99532.92;;;25.22;36.79
78839;BME280;68189;47.190;27.558;2023-03-04T08:15:51;99535.88;;;25.12;36.78
78839;BME280;68189;47.190;27.558;2023-03-04T08:18:25;99535.52;;;25.02;36.91
78839;BME280;68189;47.190;27.558;2023-03-04T08:20:55;99534.42;;;24.91;36.95
78839;BME280;68189;47.190;27.558;2023-03-04T08:23:26;99531.65;;;24.80;36.58
78839;BME280;68189;47.190;27.558;2023-03-04T08:25:56;99525.17;;;24.72;36.66
78839;BME280;68189;47.190;27.558;2023-03-04T08:28:27;99520.54;;;24.64;36.97
78839;BME280;68189;47.190;27.558;2023-03-04T08:30:57;99522.29;;;24.59;37.04
78839;BME280;68189;47.190;27.558;2023-03-04T08:33:28;99521.90;;;24.54;37.09
78839;BME280;68189;47.190;27.558;2023-03-04T08:35:58;99517.13;;;24.48;37.22
78839;BME280;68189;47.190;27.558;2023-03-04T08:38:28;99510.27;;;24.44;37.11
78839;BME280;68189;47.190;27.558;2023-03-04T08:40:59;99508.83;;;24.41;37.13
78839;BME280;68189;47.190;27.558;2023-03-04T08:43:31;99503.67;;;24.38;36.97
78839;BME280;68189;47.190;27.558;2023-03-04T08:46:04;99500.58;;;24.34;37.06
78839;BME280;68189;47.190;27.558;2023-03-04T08:48:35;99498.42;;;24.31;36.84
78839;BME280;68189;47.190;27.558;2023-03-04T08:51:10;99495.17;;;24.28;36.70
78839;BME280;68189;47.190;27.558;2023-03-04T08:53:41;99496.55;;;24.27;36.81
78839;BME280;68189;47.190;27.558;2023-03-04T08:56:13;99493.00;;;24.25;36.56
78839;BME280;68189;47.190;27.558;2023-03-04T08:58:44;99487.63;;;24.23;36.63
78839;BME280;68189;47.190;27.558;2023-03-04T09:01:15;99485.02;;;24.23;36.59
78839;BME280;68189;47.190;27.558;2023-03-04T09:03:45;99478.52;;;24.22;36.54
78839;BME280;68189;47.190;27.558;2023-03-04T09:06:16;99476.90;;;24.23;36.64
78839;BME280;68189;47.190;27.558;2023-03-04T09:08:47;99473.79;;;24.23;36.88
78839;BME280;68189;47.190;27.558;2023-03-04T09:11:17;99471.23;;;24.24;36.91
78839;BME280;68189;47.190;27.558;2023-03-04T09:13:48;99463.89;;;24.25;36.83
78839;BME280;68189;47.190;27.558;2023-03-04T09:16:19;99463.45;;;24.26;36.85
78839;BME280;68189;47.190;27.558;2023-03-04T09:18:49;99456.98;;;24.26;36.65
78839;BME280;68189;47.190;27.558;2023-03-04T09:21:20;99452.15;;;24.27;36.66
78839;BME280;68189;47.190;27.558;2023-03-04T09:23:50;99447.65;;;24.29;36.47
78839;BME280;68189;47.190;27.558;2023-03-04T09:26:23;99444.61;;;24.33;36.44
78839;BME280;68189;47.190;27.558;2023-03-04T09:28:55;99439.73;;;24.38;36.35
78839;BME280;68189;47.190;27.558;2023-03-04T09:31:27;99435.23;;;24.42;36.34
78839;BME280;68189;47.190;27.558;2023-03-04T09:33:58;99434.69;;;24.47;36.10
78839;BME280;68189;47.190;27.558;2023-03-04T09:36:29;99433.16;;;24.52;35.72
78839;BME280;68189;47.190;27.558;2023-03-04T09:39:01;99428.28;;;24.58;35.79
78839;BME280;68189;47.190;27.558;2023-03-04T09:41:36;99426.62;;;24.66;35.85
78839;BME280;68189;47.190;27.558;2023-03-04T09:44:17;99419.73;;;24.74;35.90
78839;BME280;68189;47.190;27.558;2023-03-04T09:46:51;99413.95;;;24.86;35.74
78839;BME280;68189;47.190;27.558;2023-03-04T09:49:22;99409.41;;;24.97;35.86
78839;BME280;68189;47.190;27.558;2023-03-04T09:52:04;99407.81;;;25.10;35.92
78839;BME280;68189;47.190;27.558;2023-03-04T09:54:55;99404.32;;;25.26;35.86
78839;BME280;68189;47.190;27.558;2023-03-04T09:57:39;99397.96;;;25.45;36.01
78839;BME280;68189;47.190;27.558;2023-03-04T10:00:16;99386.70;;;25.64;35.85
78839;BME280;68189;47.190;27.558;2023-03-04T10:03:05;99380.92;;;25.83;35.77
78839;BME280;68189;47.190;27.558;2023-03-04T10:05:40;99378.56;;;26.06;35.78
78839;BME280;68189;47.190;27.558;2023-03-04T10:08:23;99369.10;;;26.29;35.59
78839;BME280;68189;47.190;27.558;2023-03-04T10:10:57;99360.06;;;26.62;35.72
78839;BME280;68189;47.190;27.558;2023-03-04T10:13:33;99356.58;;;26.95;35.76
78839;BME280;68189;47.190;27.558;2023-03-04T10:16:07;99358.77;;;27.28;35.68
78839;BME280;68189;47.190;27.558;2023-03-04T10:18:45;99351.65;;;27.55;35.25
78839;BME280;68189;47.190;27.558;2023-03-04T10:21:25;99346.06;;;27.81;35.00
78839;BME280;68189;47.190;27.558;2023-03-04T10:24:00;99342.20;;;28.06;34.71
78839;BME280;68189;47.190;27.558;2023-03-04T10:26:35;99343.45;;;28.29;34.40
78839;BME280;68189;47.190;27.558;2023-03-04T10:29:07;99337.83;;;28.49;33.95
78839;BME280;68189;47.190;27.558;2023-03-04T10:31:38;99330.67;;;28.68;33.69
78839;BME280;68189;47.190;27.558;2023-03-04T10:34:12;99330.13;;;28.87;33.28
78839;BME280;68189;47.190;27.558;2023-03-04T10:36:52;99321.22;;;29.03;32.74
78839;BME280;68189;47.190;27.558;2023-03-04T10:39:27;99320.15;;;29.17;32.54
78839;BME280;68189;47.190;27.558;2023-03-04T10:42:01;99310.52;;;29.32;32.12
78839;BME280;68189;47.190;27.558;2023-03-04T10:44:32;99302.28;;;29.40;31.85
78839;BME280;68189;47.190;27.558;2023-03-04T10:47:03;99300.98;;;29.48;31.77
78839;BME280;68189;47.190;27.558;2023-03-04T10:49:51;99294.20;;;29.57;31.63
78839;BME280;68189;47.190;27.558;2023-03-04T10:52:28;99296.21;;;29.65;31.02
78839;BME280;68189;47.190;27.558;2023-03-04T10:55:02;99292.05;;;29.74;30.90
78839;BME280;68189;47.190;27.558;2023-03-04T10:57:37;99282.92;;;29.85;30.71
78839;BME280;68189;47.190;27.558;2023-03-04T11:00:29;99279.71;;;29.98;30.71
78839;BME280;68189;47.190;27.558;2023-03-04T11:03:24;99276.27;;;30.13;30.37
78839;BME280;68189;47.190;27.558;2023-03-04T11:06:17;99276.26;;;30.29;30.36
78839;BME280;68189;47.190;27.558;2023-03-04T11:08:54;99269.65;;;30.44;30.21
78839;BME280;68189;47.190;27.558;2023-03-04T11:11:29;99266.70;;;30.59;29.82
78839;BME280;68189;47.190;27.558;2023-03-04T11:14:15;99260.02;;;30.74;29.45
78839;BME280;68189;47.190;27.558;2023-03-04T11:16:56;99252.89;;;30.91;29.26
78839;BME280;68189;47.190;27.558;2023-03-04T11:19:34;99249.27;;;31.05;28.96
78839;BME280;68189;47.190;27.558;2023-03-04T11:22:08;99244.27;;;31.14;28.77
78839;BME280;68189;47.190;27.558;2023-03-04T11:24:39;99241.38;;;31.23;28.55
78839;BME280;68189;47.190;27.558;2023-03-04T11:27:16;99234.56;;;31.31;28.53
78839;BME280;68189;47.190;27.558;2023-03-04T11:29:52;99229.16;;;31.38;28.43
78839;BME280;68189;47.190;27.558;2023-03-04T11:32:26;99222.75;;;31.46;28.27
78839;BME280;68189;47.190;27.558;2023-03-04T11:35:00;99215.91;;;31.53;28.17
78839;BME280;68189;47.190;27.558;2023-03-04T11:37:38;99212.92;;;31.59;27.98
78839;BME280;68189;47.190;27.558;2023-03-04T11:40:13;99211.92;;;31.65;27.73
78839;BME280;68189;47.190;27.558;2023-03-04T11:42:48;99203.84;;;31.72;27.69
78839;BME280;68189;47.190;27.558;2023-03-04T11:45:24;99195.17;;;31.77;27.46
78839;BME280;68189;47.190;27.558;2023-03-04T11:48:05;99195.75;;;31.84;27.36
78839;BME280;68189;47.190;27.558;2023-03-04T11:50:45;99190.48;;;31.88;27.04
78839;BME280;68189;47.190;27.558;2023-03-04T11:53:19;99185.34;;;31.92;26.85
78839;BME280;68189;47.190;27.558;2023-03-04T11:56:01;99182.23;;;31.92;26.78
78839;BME280;68189;47.190;27.558;2023-03-04T11:58:55;99167.96;;;31.97;26.71
78839;BME280;68189;47.190;27.558;2023-03-04T12:01:36;99165.38;;;32.00;26.46
78839;BME280;68189;47.190;27.558;2023-03-04T12:04:30;99162.89;;;31.99;26.25
78839;BME280;68189;47.190;27.558;2023-03-04T12:07:25;99155.55;;;32.01;26.22
78839;BME280;68189;47.190;27.558;2023-03-04T12:10:17;99152.43;;;32.07;26.14
78839;BME280;68189;47.190;27.558;2023-03-04T12:13:08;99153.26;;;32.10;25.91
78839;BME280;68189;47.190;27.558;2023-03-04T12:15:52;99152.59;;;32.07;25.86
78839;BME280;68189;47.190;27.558;2023-03-04T12:18:39;99145.27;;;32.04;25.87
78839;BME280;68189;47.190;27.558;2023-03-04T12:21:18;99146.91;;;32.05;25.79
78839;BME280;68189;47.190;27.558;2023-03-04T12:24:21;99145.42;;;32.05;25.54
78839;BME280;68189;47.190;27.558;2023-03-04T12:26:59;99142.31;;;32.07;25.51
78839;BME280;68189;47.190;27.558;2023-03-04T12:29:37;99140.15;;;32.07;25.53
78839;BME280;68189;47.190;27.558;2023-03-04T12:32:20;99133.89;;;32.10;25.62
78839;BME280;68189;47.190;27.558;2023-03-04T12:35:29;99131.86;;;31.95;25.64
78839;BME280;68189;47.190;27.558;2023-03-04T12:38:18;99124.95;;;30.93;26.00
78839;BME280;68189;47.190;27.558;2023-03-04T12:41:05;99115.80;;;30.06;26.26
78839;BME280;68189;47.190;27.558;2023-03-04T12:43:48;99109.17;;;29.35;26.76
78839;BME280;68189;47.190;27.558;2023-03-04T12:46:39;99106.20;;;28.78;26.83
78839;BME280;68189;47.190;27.558;2023-03-04T12:52:16;99103.03;;;27.77;26.42
78839;BME280;68189;47.190;27.558;2023-03-04T12:54:54;99097.38;;;27.38;26.48
78839;BME280;68189;47.190;27.558;2023-03-04T12:57:26;99092.84;;;27.09;26.81
78839;BME280;68189;47.190;27.558;2023-03-04T13:00:08;99086.38;;;26.80;26.68
78839;BME280;68189;47.190;27.558;2023-03-04T13:02:58;99081.23;;;26.54;26.77
78839;BME280;68189;47.190;27.558;2023-03-04T13:05:57;99070.68;;;26.31;26.85
78839;BME280;68189;47.190;27.558;2023-03-04T13:08:39;99064.11;;;26.10;26.78
78839;BME280;68189;47.190;27.558;2023-03-04T13:11:52;99057.42;;;25.94;27.06
78839;BME280;68189;47.190;27.558;2023-03-04T13:14:36;99058.36;;;25.77;27.50
78839;BME280;68189;47.190;27.558;2023-03-04T13:17:38;99051.84;;;25.66;27.87
78839;BME280;68189;47.190;27.558;2023-03-04T13:20:31;99041.46;;;25.53;27.86
78839;BME280;68189;47.190;27.558;2023-03-04T13:23:03;99035.79;;;25.40;26.68
78839;BME280;68189;47.190;27.558;2023-03-04T13:29:33;99025.55;;;25.12;25.75